sensor_id;sensor_type;location;lat;lon;timestamp;temperature;humidity
30148;DHT22;16960;49.404;8.248;2022-07-09T00:00:55;22.90;44.90
30148;DHT22;16960;49.404;8.248;2022-07-09T00:03:23;22.90;44.90
30148;DHT22;16960;49.404;8.248;2022-07-09T00:05:50;22.90;45.00
30148;DHT22;16960;49.404;8.248;2022-07-09T00:08:17;22.90;44.90
30148;DHT22;16960;49.404;8.248;2022-07-09T00:10:44;22.90;45.00
30148;DHT22;16960;49.404;8.248;2022-07-09T00:13:11;22.90;44.90
30148;DHT22;16960;49.404;8.248;2022-07-09T00:15:38;22.90;45.00
30148;DHT22;16960;49.404;8.248;2022-07-09T00:18:06;22.90;45.80
30148;DHT22;16960;49.404;8.248;2022-07-09T00:20:33;22.90;45.10
30148;DHT22;16960;49.404;8.248;2022-07-09T00:23:00;22.90;45.10
30148;DHT22;16960;49.404;8.248;2022-07-09T00:25:27;22.90;45.10
30148;DHT22;16960;49.404;8.248;2022-07-09T00:27:54;22.90;45.30
30148;DHT22;16960;49.404;8.248;2022-07-09T00:30:21;22.90;45.30
30148;DHT22;16960;49.404;8.248;2022-07-09T00:32:48;22.90;45.20
30148;DHT22;16960;49.404;8.248;2022-07-09T00:35:16;22.90;45.30
30148;DHT22;16960;49.404;8.248;2022-07-09T00:37:43;22.90;45.30
30148;DHT22;16960;49.404;8.248;2022-07-09T00:40:10;22.90;45.30
30148;DHT22;16960;49.404;8.248;2022-07-09T00:42:37;22.80;45.30
30148;DHT22;16960;49.404;8.248;2022-07-09T00:45:06;22.90;45.40
30148;DHT22;16960;49.404;8.248;2022-07-09T00:47:33;22.90;45.40
30148;DHT22;16960;49.404;8.248;2022-07-09T00:50:00;22.80;45.30
30148;DHT22;16960;49.404;8.248;2022-07-09T00:52:30;22.80;45.30
30148;DHT22;16960;49.404;8.248;2022-07-09T00:55:00;22.80;45.40
30148;DHT22;16960;49.404;8.248;2022-07-09T00:57:27;22.80;45.40
30148;DHT22;16960;49.404;8.248;2022-07-09T00:59:56;22.80;45.40
30148;DHT22;16960;49.404;8.248;2022-07-09T01:02:24;22.80;45.40
30148;DHT22;16960;49.404;8.248;2022-07-09T01:04:51;22.80;45.40
30148;DHT22;16960;49.404;8.248;2022-07-09T01:07:18;22.80;45.40
30148;DHT22;16960;49.404;8.248;2022-07-09T01:09:46;22.80;45.40
30148;DHT22;16960;49.404;8.248;2022-07-09T01:12:14;22.80;45.50
30148;DHT22;16960;49.404;8.248;2022-07-09T01:14:41;22.80;45.50
30148;DHT22;16960;49.404;8.248;2022-07-09T01:17:08;22.70;45.60
30148;DHT22;16960;49.404;8.248;2022-07-09T01:19:35;22.80;45.60
30148;DHT22;16960;49.404;8.248;2022-07-09T01:22:04;22.70;45.60
30148;DHT22;16960;49.404;8.248;2022-07-09T01:24:31;22.70;45.60
30148;DHT22;16960;49.404;8.248;2022-07-09T01:26:58;22.80;45.70
30148;DHT22;16960;49.404;8.248;2022-07-09T01:29:25;22.80;45.70
30148;DHT22;16960;49.404;8.248;2022-07-09T01:31:52;22.70;45.70
30148;DHT22;16960;49.404;8.248;2022-07-09T01:34:19;22.70;45.70
30148;DHT22;16960;49.404;8.248;2022-07-09T01:36:46;22.70;45.80
30148;DHT22;16960;49.404;8.248;2022-07-09T01:39:14;22.70;45.80
30148;DHT22;16960;49.404;8.248;2022-07-09T01:41:41;22.70;45.80
30148;DHT22;16960;49.404;8.248;2022-07-09T01:44:08;22.70;45.80
30148;DHT22;16960;49.404;8.248;2022-07-09T01:46:35;22.70;45.80
30148;DHT22;16960;49.404;8.248;2022-07-09T01:49:02;22.70;45.90
30148;DHT22;16960;49.404;8.248;2022-07-09T01:51:29;22.70;45.90
30148;DHT22;16960;49.404;8.248;2022-07-09T01:53:57;22.70;46.00
30148;DHT22;16960;49.404;8.248;2022-07-09T01:56:26;22.70;46.00
30148;DHT22;16960;49.404;8.248;2022-07-09T01:58:53;22.60;46.00
30148;DHT22;16960;49.404;8.248;2022-07-09T02:01:19;22.60;45.90
30148;DHT22;16960;49.404;8.248;2022-07-09T02:03:47;22.60;46.00
30148;DHT22;16960;49.404;8.248;2022-07-09T02:06:14;22.60;46.10
30148;DHT22;16960;49.404;8.248;2022-07-09T02:08:41;22.60;46.10
30148;DHT22;16960;49.404;8.248;2022-07-09T02:11:08;22.60;46.10
30148;DHT22;16960;49.404;8.248;2022-07-09T02:13:37;22.60;46.20
30148;DHT22;16960;49.404;8.248;2022-07-09T02:16:05;22.50;46.20
30148;DHT22;16960;49.404;8.248;2022-07-09T02:18:32;22.50;46.20
30148;DHT22;16960;49.404;8.248;2022-07-09T02:20:59;22.50;46.30
30148;DHT22;16960;49.404;8.248;2022-07-09T02:23:26;22.50;46.30
30148;DHT22;16960;49.404;8.248;2022-07-09T02:25:53;22.50;46.30
30148;DHT22;16960;49.404;8.248;2022-07-09T02:28:20;22.50;46.50
30148;DHT22;16960;49.404;8.248;2022-07-09T02:30:48;22.50;46.60
30148;DHT22;16960;49.404;8.248;2022-07-09T02:33:15;22.50;46.80
30148;DHT22;16960;49.404;8.248;2022-07-09T02:35:42;22.40;46.60
30148;DHT22;16960;49.404;8.248;2022-07-09T02:38:09;22.40;46.50
30148;DHT22;16960;49.404;8.248;2022-07-09T02:40:36;22.40;46.60
30148;DHT22;16960;49.404;8.248;2022-07-09T02:43:03;22.40;46.60
30148;DHT22;16960;49.404;8.248;2022-07-09T02:45:30;22.40;46.60
30148;DHT22;16960;49.404;8.248;2022-07-09T02:47:58;22.40;46.60
30148;DHT22;16960;49.404;8.248;2022-07-09T02:50:25;22.40;46.50
30148;DHT22;16960;49.404;8.248;2022-07-09T02:52:52;22.40;46.60
30148;DHT22;16960;49.404;8.248;2022-07-09T02:55:19;22.30;46.60
30148;DHT22;16960;49.404;8.248;2022-07-09T02:57:46;22.30;46.80
30148;DHT22;16960;49.404;8.248;2022-07-09T03:00:13;22.30;46.90
30148;DHT22;16960;49.404;8.248;2022-07-09T03:02:40;22.30;47.20
30148;DHT22;16960;49.404;8.248;2022-07-09T03:05:09;22.30;47.20
30148;DHT22;16960;49.404;8.248;2022-07-09T03:07:36;22.30;47.20
30148;DHT22;16960;49.404;8.248;2022-07-09T03:10:03;22.20;47.30
30148;DHT22;16960;49.404;8.248;2022-07-09T03:12:31;22.20;47.50
30148;DHT22;16960;49.404;8.248;2022-07-09T03:14:58;22.20;47.50
30148;DHT22;16960;49.404;8.248;2022-07-09T03:17:25;22.20;47.50
30148;DHT22;16960;49.404;8.248;2022-07-09T03:19:52;22.20;47.50
30148;DHT22;16960;49.404;8.248;2022-07-09T03:22:21;22.20;48.00
30148;DHT22;16960;49.404;8.248;2022-07-09T03:24:48;22.10;47.40
30148;DHT22;16960;49.404;8.248;2022-07-09T03:27:15;22.10;47.40
30148;DHT22;16960;49.404;8.248;2022-07-09T03:29:42;22.10;47.60
30148;DHT22;16960;49.404;8.248;2022-07-09T03:32:09;22.10;47.70
30148;DHT22;16960;49.404;8.248;2022-07-09T03:34:36;22.10;48.60
30148;DHT22;16960;49.404;8.248;2022-07-09T03:37:03;22.10;48.00
30148;DHT22;16960;49.404;8.248;2022-07-09T03:39:31;22.10;48.00
30148;DHT22;16960;49.404;8.248;2022-07-09T03:41:58;22.00;48.00
30148;DHT22;16960;49.404;8.248;2022-07-09T03:44:25;22.00;48.00
30148;DHT22;16960;49.404;8.248;2022-07-09T03:46:52;22.00;48.00
30148;DHT22;16960;49.404;8.248;2022-07-09T03:49:19;22.00;48.00
30148;DHT22;16960;49.404;8.248;2022-07-09T03:51:46;22.00;48.00
30148;DHT22;16960;49.404;8.248;2022-07-09T03:54:13;22.00;48.00
30148;DHT22;16960;49.404;8.248;2022-07-09T03:56:41;22.00;48.00
30148;DHT22;16960;49.404;8.248;2022-07-09T03:59:08;22.00;48.00
30148;DHT22;16960;49.404;8.248;2022-07-09T04:01:35;21.90;48.00
30148;DHT22;16960;49.404;8.248;2022-07-09T04:04:03;21.90;48.00
30148;DHT22;16960;49.404;8.248;2022-07-09T04:06:30;21.90;48.00
30148;DHT22;16960;49.404;8.248;2022-07-09T04:08:57;21.90;48.10
30148;DHT22;16960;49.404;8.248;2022-07-09T04:11:29;21.90;48.20
30148;DHT22;16960;49.404;8.248;2022-07-09T04:13:58;21.90;48.30
30148;DHT22;16960;49.404;8.248;2022-07-09T04:16:24;21.90;48.30
30148;DHT22;16960;49.404;8.248;2022-07-09T04:18:52;21.90;48.50
30148;DHT22;16960;49.404;8.248;2022-07-09T04:21:19;21.90;48.60
30148;DHT22;16960;49.404;8.248;2022-07-09T04:23:47;21.80;48.50
30148;DHT22;16960;49.404;8.248;2022-07-09T04:26:14;21.80;48.50
30148;DHT22;16960;49.404;8.248;2022-07-09T04:28:42;21.80;48.40
30148;DHT22;16960;49.404;8.248;2022-07-09T04:31:10;21.80;48.50
30148;DHT22;16960;49.404;8.248;2022-07-09T04:33:37;21.80;48.60
30148;DHT22;16960;49.404;8.248;2022-07-09T04:36:04;21.80;48.50
30148;DHT22;16960;49.404;8.248;2022-07-09T04:38:31;21.70;48.70
30148;DHT22;16960;49.404;8.248;2022-07-09T04:40:58;21.70;48.80
30148;DHT22;16960;49.404;8.248;2022-07-09T04:43:25;21.70;48.80
30148;DHT22;16960;49.404;8.248;2022-07-09T04:45:52;21.70;48.90
30148;DHT22;16960;49.404;8.248;2022-07-09T04:48:21;21.70;48.90
30148;DHT22;16960;49.404;8.248;2022-07-09T04:50:48;21.70;49.50
30148;DHT22;16960;49.404;8.248;2022-07-09T04:53:15;21.70;48.90
30148;DHT22;16960;49.404;8.248;2022-07-09T04:55:41;21.70;48.90
30148;DHT22;16960;49.404;8.248;2022-07-09T04:58:09;21.70;49.10
30148;DHT22;16960;49.404;8.248;2022-07-09T05:00:36;21.60;49.10
30148;DHT22;16960;49.404;8.248;2022-07-09T05:03:03;21.60;49.30
30148;DHT22;16960;49.404;8.248;2022-07-09T05:05:31;21.60;49.50
30148;DHT22;16960;49.404;8.248;2022-07-09T05:07:58;21.60;49.30
30148;DHT22;16960;49.404;8.248;2022-07-09T05:10:25;21.50;49.40
30148;DHT22;16960;49.404;8.248;2022-07-09T05:12:52;21.50;49.70
30148;DHT22;16960;49.404;8.248;2022-07-09T05:15:19;21.40;49.80
30148;DHT22;16960;49.404;8.248;2022-07-09T05:17:46;21.40;50.00
30148;DHT22;16960;49.404;8.248;2022-07-09T05:20:13;21.40;50.00
30148;DHT22;16960;49.404;8.248;2022-07-09T05:22:41;21.40;50.30
30148;DHT22;16960;49.404;8.248;2022-07-09T05:25:09;21.40;50.40
30148;DHT22;16960;49.404;8.248;2022-07-09T05:27:41;21.30;51.10
30148;DHT22;16960;49.404;8.248;2022-07-09T05:30:09;21.20;50.70
30148;DHT22;16960;49.404;8.248;2022-07-09T05:32:36;21.30;50.70
30148;DHT22;16960;49.404;8.248;2022-07-09T05:35:04;21.30;50.60
30148;DHT22;16960;49.404;8.248;2022-07-09T05:37:31;21.30;50.60
30148;DHT22;16960;49.404;8.248;2022-07-09T05:39:59;21.30;51.50
30148;DHT22;16960;49.404;8.248;2022-07-09T05:42:31;21.30;51.60
30148;DHT22;16960;49.404;8.248;2022-07-09T05:44:58;21.20;51.80
30148;DHT22;16960;49.404;8.248;2022-07-09T05:47:25;21.20;52.00
30148;DHT22;16960;49.404;8.248;2022-07-09T05:49:52;21.20;52.60
30148;DHT22;16960;49.404;8.248;2022-07-09T05:52:19;21.20;52.20
30148;DHT22;16960;49.404;8.248;2022-07-09T05:54:46;21.20;52.00
30148;DHT22;16960;49.404;8.248;2022-07-09T05:57:14;21.20;51.90
30148;DHT22;16960;49.404;8.248;2022-07-09T05:59:41;21.20;51.90
30148;DHT22;16960;49.404;8.248;2022-07-09T06:02:08;21.20;51.80
30148;DHT22;16960;49.404;8.248;2022-07-09T06:04:35;21.20;51.90
30148;DHT22;16960;49.404;8.248;2022-07-09T06:07:02;21.20;51.90
30148;DHT22;16960;49.404;8.248;2022-07-09T06:09:29;21.20;52.10
30148;DHT22;16960;49.404;8.248;2022-07-09T06:11:56;21.20;52.10
30148;DHT22;16960;49.404;8.248;2022-07-09T06:14:25;21.30;52.50
30148;DHT22;16960;49.404;8.248;2022-07-09T06:16:52;21.30;52.60
30148;DHT22;16960;49.404;8.248;2022-07-09T06:19:20;21.30;53.10
30148;DHT22;16960;49.404;8.248;2022-07-09T06:21:47;21.30;53.50
30148;DHT22;16960;49.404;8.248;2022-07-09T06:24:14;21.30;53.20
30148;DHT22;16960;49.404;8.248;2022-07-09T06:26:41;21.30;53.00
30148;DHT22;16960;49.404;8.248;2022-07-09T06:29:08;21.30;53.10
30148;DHT22;16960;49.404;8.248;2022-07-09T06:31:37;21.30;52.80
30148;DHT22;16960;49.404;8.248;2022-07-09T06:34:04;21.30;52.70
30148;DHT22;16960;49.404;8.248;2022-07-09T06:36:30;21.30;52.80
30148;DHT22;16960;49.404;8.248;2022-07-09T06:38:57;21.30;52.60
30148;DHT22;16960;49.404;8.248;2022-07-09T06:41:42;21.30;52.80
30148;DHT22;16960;49.404;8.248;2022-07-09T06:44:09;21.40;53.20
30148;DHT22;16960;49.404;8.248;2022-07-09T06:46:37;21.40;53.40
30148;DHT22;16960;49.404;8.248;2022-07-09T06:49:04;21.40;53.10
30148;DHT22;16960;49.404;8.248;2022-07-09T06:51:31;21.40;53.10
30148;DHT22;16960;49.404;8.248;2022-07-09T06:53:58;21.40;52.80
30148;DHT22;16960;49.404;8.248;2022-07-09T06:56:25;21.40;53.10
30148;DHT22;16960;49.404;8.248;2022-07-09T06:58:52;21.40;53.00
30148;DHT22;16960;49.404;8.248;2022-07-09T07:01:19;21.40;53.30
30148;DHT22;16960;49.404;8.248;2022-07-09T07:03:47;21.40;52.80
30148;DHT22;16960;49.404;8.248;2022-07-09T07:06:14;21.50;53.10
30148;DHT22;16960;49.404;8.248;2022-07-09T07:08:41;21.50;53.00
30148;DHT22;16960;49.404;8.248;2022-07-09T07:11:08;21.50;52.70
30148;DHT22;16960;49.404;8.248;2022-07-09T07:13:35;21.50;53.00
30148;DHT22;16960;49.404;8.248;2022-07-09T07:16:02;21.60;52.60
30148;DHT22;16960;49.404;8.248;2022-07-09T07:18:29;21.60;52.40
30148;DHT22;16960;49.404;8.248;2022-07-09T07:20:57;21.60;52.40
30148;DHT22;16960;49.404;8.248;2022-07-09T07:23:24;21.60;52.50
30148;DHT22;16960;49.404;8.248;2022-07-09T07:25:51;21.60;52.40
30148;DHT22;16960;49.404;8.248;2022-07-09T07:28:18;21.60;52.60
30148;DHT22;16960;49.404;8.248;2022-07-09T07:30:45;21.70;52.60
30148;DHT22;16960;49.404;8.248;2022-07-09T07:33:12;21.70;52.50
30148;DHT22;16960;49.404;8.248;2022-07-09T07:35:39;21.70;52.50
30148;DHT22;16960;49.404;8.248;2022-07-09T07:38:08;21.70;52.20
30148;DHT22;16960;49.404;8.248;2022-07-09T07:40:35;21.70;52.40
30148;DHT22;16960;49.404;8.248;2022-07-09T07:43:03;21.70;52.20
30148;DHT22;16960;49.404;8.248;2022-07-09T07:45:30;21.80;52.40
30148;DHT22;16960;49.404;8.248;2022-07-09T07:47:57;21.80;52.50
30148;DHT22;16960;49.404;8.248;2022-07-09T07:50:24;21.80;52.40
30148;DHT22;16960;49.404;8.248;2022-07-09T07:52:51;21.90;52.20
30148;DHT22;16960;49.404;8.248;2022-07-09T07:55:19;21.90;52.20
30148;DHT22;16960;49.404;8.248;2022-07-09T07:57:46;21.90;51.90
30148;DHT22;16960;49.404;8.248;2022-07-09T08:00:14;21.90;51.70
30148;DHT22;16960;49.404;8.248;2022-07-09T08:02:40;21.90;51.40
30148;DHT22;16960;49.404;8.248;2022-07-09T08:05:08;22.00;51.40
30148;DHT22;16960;49.404;8.248;2022-07-09T08:07:35;22.00;51.40
30148;DHT22;16960;49.404;8.248;2022-07-09T08:10:02;22.00;51.30
30148;DHT22;16960;49.404;8.248;2022-07-09T08:12:31;22.10;51.20
30148;DHT22;16960;49.404;8.248;2022-07-09T08:14:58;22.00;50.90
30148;DHT22;16960;49.404;8.248;2022-07-09T08:17:24;22.00;50.80
30148;DHT22;16960;49.404;8.248;2022-07-09T08:19:51;22.10;50.80
30148;DHT22;16960;49.404;8.248;2022-07-09T08:22:18;22.10;50.70
30148;DHT22;16960;49.404;8.248;2022-07-09T08:24:45;22.10;50.60
30148;DHT22;16960;49.404;8.248;2022-07-09T08:27:12;22.10;50.60
30148;DHT22;16960;49.404;8.248;2022-07-09T08:29:41;22.10;50.40
30148;DHT22;16960;49.404;8.248;2022-07-09T08:32:08;22.10;50.40
30148;DHT22;16960;49.404;8.248;2022-07-09T08:34:35;22.10;50.30
30148;DHT22;16960;49.404;8.248;2022-07-09T08:37:02;22.10;50.20
30148;DHT22;16960;49.404;8.248;2022-07-09T08:39:29;22.10;50.10
30148;DHT22;16960;49.404;8.248;2022-07-09T08:41:58;22.10;50.00
30148;DHT22;16960;49.404;8.248;2022-07-09T08:44:27;22.10;49.90
30148;DHT22;16960;49.404;8.248;2022-07-09T08:46:57;22.20;49.90
30148;DHT22;16960;49.404;8.248;2022-07-09T08:49:27;22.20;49.80
30148;DHT22;16960;49.404;8.248;2022-07-09T08:51:55;22.20;49.70
30148;DHT22;16960;49.404;8.248;2022-07-09T08:54:22;22.20;49.60
30148;DHT22;16960;49.404;8.248;2022-07-09T08:56:51;22.20;49.60
30148;DHT22;16960;49.404;8.248;2022-07-09T08:59:18;22.20;49.50
30148;DHT22;16960;49.404;8.248;2022-07-09T09:01:45;22.20;49.40
30148;DHT22;16960;49.404;8.248;2022-07-09T09:04:13;22.20;49.30
30148;DHT22;16960;49.404;8.248;2022-07-09T09:06:40;22.20;49.30
30148;DHT22;16960;49.404;8.248;2022-07-09T09:09:08;22.20;49.20
30148;DHT22;16960;49.404;8.248;2022-07-09T09:11:36;22.20;49.10
30148;DHT22;16960;49.404;8.248;2022-07-09T09:14:04;22.20;49.10
30148;DHT22;16960;49.404;8.248;2022-07-09T09:16:41;22.30;49.10
30148;DHT22;16960;49.404;8.248;2022-07-09T09:19:09;22.30;49.00
30148;DHT22;16960;49.404;8.248;2022-07-09T09:21:37;22.30;49.00
30148;DHT22;16960;49.404;8.248;2022-07-09T09:24:05;22.30;48.90
30148;DHT22;16960;49.404;8.248;2022-07-09T09:26:33;22.30;48.80
30148;DHT22;16960;49.404;8.248;2022-07-09T09:29:02;22.40;48.80
30148;DHT22;16960;49.404;8.248;2022-07-09T09:31:30;22.40;48.70
30148;DHT22;16960;49.404;8.248;2022-07-09T09:34:10;22.40;48.80
30148;DHT22;16960;49.404;8.248;2022-07-09T09:36:40;22.40;48.70
30148;DHT22;16960;49.404;8.248;2022-07-09T09:39:14;22.40;48.80
30148;DHT22;16960;49.404;8.248;2022-07-09T09:41:43;22.40;48.70
30148;DHT22;16960;49.404;8.248;2022-07-09T09:44:13;22.40;48.60
30148;DHT22;16960;49.404;8.248;2022-07-09T09:46:41;22.40;48.60
30148;DHT22;16960;49.404;8.248;2022-07-09T09:49:09;22.40;48.50
30148;DHT22;16960;49.404;8.248;2022-07-09T09:51:46;22.40;48.40
30148;DHT22;16960;49.404;8.248;2022-07-09T09:54:15;22.50;48.50
30148;DHT22;16960;49.404;8.248;2022-07-09T09:56:42;22.50;48.50
30148;DHT22;16960;49.404;8.248;2022-07-09T09:59:09;22.50;48.40
30148;DHT22;16960;49.404;8.248;2022-07-09T10:01:37;22.50;48.30
30148;DHT22;16960;49.404;8.248;2022-07-09T10:04:04;22.60;48.30
30148;DHT22;16960;49.404;8.248;2022-07-09T10:06:32;22.60;48.30
30148;DHT22;16960;49.404;8.248;2022-07-09T10:09:03;22.60;48.30
30148;DHT22;16960;49.404;8.248;2022-07-09T10:11:41;22.60;48.30
30148;DHT22;16960;49.404;8.248;2022-07-09T10:14:15;22.60;48.20
30148;DHT22;16960;49.404;8.248;2022-07-09T10:16:42;22.60;48.20
30148;DHT22;16960;49.404;8.248;2022-07-09T10:19:09;22.60;48.10
30148;DHT22;16960;49.404;8.248;2022-07-09T10:21:38;22.70;48.40
30148;DHT22;16960;49.404;8.248;2022-07-09T10:24:08;22.70;48.20
30148;DHT22;16960;49.404;8.248;2022-07-09T10:26:37;22.70;48.10
30148;DHT22;16960;49.404;8.248;2022-07-09T10:29:18;22.70;48.10
30148;DHT22;16960;49.404;8.248;2022-07-09T10:31:46;22.70;48.10
30148;DHT22;16960;49.404;8.248;2022-07-09T10:37:11;22.80;48.00
30148;DHT22;16960;49.404;8.248;2022-07-09T10:39:40;22.70;48.00
30148;DHT22;16960;49.404;8.248;2022-07-09T10:42:17;22.80;47.90
30148;DHT22;16960;49.404;8.248;2022-07-09T10:44:44;22.80;47.80
30148;DHT22;16960;49.404;8.248;2022-07-09T10:47:12;22.80;47.80
30148;DHT22;16960;49.404;8.248;2022-07-09T10:49:39;22.80;47.80
30148;DHT22;16960;49.404;8.248;2022-07-09T10:52:07;22.80;47.80
30148;DHT22;16960;49.404;8.248;2022-07-09T10:54:34;22.80;47.80
30148;DHT22;16960;49.404;8.248;2022-07-09T10:57:13;22.80;47.70
30148;DHT22;16960;49.404;8.248;2022-07-09T10:59:45;22.90;47.80
30148;DHT22;16960;49.404;8.248;2022-07-09T11:02:17;22.90;47.70
30148;DHT22;16960;49.404;8.248;2022-07-09T11:04:48;22.90;47.70
30148;DHT22;16960;49.404;8.248;2022-07-09T11:07:19;22.90;47.60
30148;DHT22;16960;49.404;8.248;2022-07-09T11:09:47;22.90;47.60
30148;DHT22;16960;49.404;8.248;2022-07-09T11:12:16;22.90;47.50
30148;DHT22;16960;49.404;8.248;2022-07-09T11:14:44;22.90;47.50
30148;DHT22;16960;49.404;8.248;2022-07-09T11:17:14;23.00;47.50
30148;DHT22;16960;49.404;8.248;2022-07-09T11:19:41;23.00;47.50
30148;DHT22;16960;49.404;8.248;2022-07-09T11:22:09;23.00;47.40
30148;DHT22;16960;49.404;8.248;2022-07-09T11:24:36;23.00;47.40
30148;DHT22;16960;49.404;8.248;2022-07-09T11:27:04;23.00;47.30
30148;DHT22;16960;49.404;8.248;2022-07-09T11:29:33;23.10;47.40
30148;DHT22;16960;49.404;8.248;2022-07-09T11:32:00;23.10;47.40
30148;DHT22;16960;49.404;8.248;2022-07-09T11:34:28;23.10;47.40
30148;DHT22;16960;49.404;8.248;2022-07-09T11:36:57;23.10;47.30
30148;DHT22;16960;49.404;8.248;2022-07-09T11:39:26;23.10;47.30
30148;DHT22;16960;49.404;8.248;2022-07-09T11:41:54;23.20;47.30
30148;DHT22;16960;49.404;8.248;2022-07-09T11:44:23;23.20;47.20
30148;DHT22;16960;49.404;8.248;2022-07-09T11:47:02;23.20;47.20
30148;DHT22;16960;49.404;8.248;2022-07-09T11:49:34;23.20;47.10
30148;DHT22;16960;49.404;8.248;2022-07-09T11:52:01;23.20;47.10
30148;DHT22;16960;49.404;8.248;2022-07-09T11:54:28;23.20;47.10
30148;DHT22;16960;49.404;8.248;2022-07-09T11:56:55;23.20;47.70
30148;DHT22;16960;49.404;8.248;2022-07-09T11:59:27;23.30;47.60
30148;DHT22;16960;49.404;8.248;2022-07-09T12:01:57;23.30;47.50
30148;DHT22;16960;49.404;8.248;2022-07-09T12:04:28;23.30;47.40
30148;DHT22;16960;49.404;8.248;2022-07-09T12:06:56;23.30;47.30
30148;DHT22;16960;49.404;8.248;2022-07-09T12:09:32;23.30;47.20
30148;DHT22;16960;49.404;8.248;2022-07-09T12:11:59;23.40;47.20
30148;DHT22;16960;49.404;8.248;2022-07-09T12:14:26;23.40;47.20
30148;DHT22;16960;49.404;8.248;2022-07-09T12:16:53;23.40;47.10
30148;DHT22;16960;49.404;8.248;2022-07-09T12:19:20;23.40;47.10
30148;DHT22;16960;49.404;8.248;2022-07-09T12:21:49;23.40;47.00
30148;DHT22;16960;49.404;8.248;2022-07-09T12:24:16;23.40;47.00
30148;DHT22;16960;49.404;8.248;2022-07-09T12:26:43;23.40;47.70
30148;DHT22;16960;49.404;8.248;2022-07-09T12:29:10;23.50;47.00
30148;DHT22;16960;49.404;8.248;2022-07-09T12:31:37;23.50;46.90
30148;DHT22;16960;49.404;8.248;2022-07-09T12:34:04;23.50;46.90
30148;DHT22;16960;49.404;8.248;2022-07-09T12:36:32;23.50;46.90
30148;DHT22;16960;49.404;8.248;2022-07-09T12:39:00;23.50;46.90
30148;DHT22;16960;49.404;8.248;2022-07-09T12:41:27;23.50;46.80
30148;DHT22;16960;49.404;8.248;2022-07-09T12:43:54;23.50;46.80
30148;DHT22;16960;49.404;8.248;2022-07-09T12:46:21;23.50;46.80
30148;DHT22;16960;49.404;8.248;2022-07-09T12:48:49;23.60;46.70
30148;DHT22;16960;49.404;8.248;2022-07-09T12:51:15;23.60;46.70
30148;DHT22;16960;49.404;8.248;2022-07-09T12:53:42;23.60;46.70
30148;DHT22;16960;49.404;8.248;2022-07-09T12:56:11;23.60;46.60
30148;DHT22;16960;49.404;8.248;2022-07-09T12:58:38;23.70;46.70
30148;DHT22;16960;49.404;8.248;2022-07-09T13:01:05;23.60;46.70
30148;DHT22;16960;49.404;8.248;2022-07-09T13:03:32;23.60;46.70
30148;DHT22;16960;49.404;8.248;2022-07-09T13:05:59;23.70;46.80
30148;DHT22;16960;49.404;8.248;2022-07-09T13:08:26;23.70;46.80
30148;DHT22;16960;49.404;8.248;2022-07-09T13:10:53;23.70;46.80
30148;DHT22;16960;49.404;8.248;2022-07-09T13:13:22;23.70;46.80
30148;DHT22;16960;49.404;8.248;2022-07-09T13:15:49;23.70;46.80
30148;DHT22;16960;49.404;8.248;2022-07-09T13:18:16;23.70;46.80
30148;DHT22;16960;49.404;8.248;2022-07-09T13:20:43;23.70;46.70
30148;DHT22;16960;49.404;8.248;2022-07-09T13:23:10;23.70;46.60
30148;DHT22;16960;49.404;8.248;2022-07-09T13:25:37;23.80;46.60
30148;DHT22;16960;49.404;8.248;2022-07-09T13:28:04;23.80;46.50
30148;DHT22;16960;49.404;8.248;2022-07-09T13:30:33;23.80;46.50
30148;DHT22;16960;49.404;8.248;2022-07-09T13:33:00;23.80;46.50
30148;DHT22;16960;49.404;8.248;2022-07-09T13:35:27;23.80;46.50
30148;DHT22;16960;49.404;8.248;2022-07-09T13:37:54;23.80;46.50
30148;DHT22;16960;49.404;8.248;2022-07-09T13:40:21;23.90;46.50
30148;DHT22;16960;49.404;8.248;2022-07-09T13:42:47;23.90;46.40
30148;DHT22;16960;49.404;8.248;2022-07-09T13:45:14;23.90;46.40
30148;DHT22;16960;49.404;8.248;2022-07-09T13:47:43;23.90;46.40
30148;DHT22;16960;49.404;8.248;2022-07-09T13:50:10;23.90;46.40
30148;DHT22;16960;49.404;8.248;2022-07-09T13:52:37;23.90;46.30
30148;DHT22;16960;49.404;8.248;2022-07-09T13:55:05;23.90;46.30
30148;DHT22;16960;49.404;8.248;2022-07-09T13:57:32;23.90;46.30
30148;DHT22;16960;49.404;8.248;2022-07-09T13:59:59;23.90;46.20
30148;DHT22;16960;49.404;8.248;2022-07-09T14:02:26;24.00;46.20
30148;DHT22;16960;49.404;8.248;2022-07-09T14:04:54;24.00;46.20
30148;DHT22;16960;49.404;8.248;2022-07-09T14:07:22;24.00;46.20
30148;DHT22;16960;49.404;8.248;2022-07-09T14:09:49;24.00;46.20
30148;DHT22;16960;49.404;8.248;2022-07-09T14:12:16;24.00;46.20
30148;DHT22;16960;49.404;8.248;2022-07-09T14:14:43;24.00;46.10
30148;DHT22;16960;49.404;8.248;2022-07-09T14:17:11;24.00;46.10
30148;DHT22;16960;49.404;8.248;2022-07-09T14:19:38;24.00;46.10
30148;DHT22;16960;49.404;8.248;2022-07-09T14:22:06;24.00;46.10
30148;DHT22;16960;49.404;8.248;2022-07-09T14:24:33;24.00;46.20
30148;DHT22;16960;49.404;8.248;2022-07-09T14:27:00;24.00;46.50
30148;DHT22;16960;49.404;8.248;2022-07-09T14:29:28;24.10;46.60
30148;DHT22;16960;49.404;8.248;2022-07-09T14:31:55;24.00;46.50
30148;DHT22;16960;49.404;8.248;2022-07-09T14:34:22;24.10;46.50
30148;DHT22;16960;49.404;8.248;2022-07-09T14:36:49;24.10;46.40
30148;DHT22;16960;49.404;8.248;2022-07-09T14:39:18;24.10;46.30
30148;DHT22;16960;49.404;8.248;2022-07-09T14:41:47;24.10;46.20
30148;DHT22;16960;49.404;8.248;2022-07-09T14:44:14;24.10;46.20
30148;DHT22;16960;49.404;8.248;2022-07-09T14:46:41;24.10;46.10
30148;DHT22;16960;49.404;8.248;2022-07-09T14:49:08;24.20;46.00
30148;DHT22;16960;49.404;8.248;2022-07-09T14:51:36;24.20;46.40
30148;DHT22;16960;49.404;8.248;2022-07-09T14:54:04;24.20;46.10
30148;DHT22;16960;49.404;8.248;2022-07-09T14:56:33;24.20;46.30
30148;DHT22;16960;49.404;8.248;2022-07-09T14:59:00;24.30;46.70
30148;DHT22;16960;49.404;8.248;2022-07-09T15:01:27;24.30;46.80
30148;DHT22;16960;49.404;8.248;2022-07-09T15:03:54;24.30;46.80
30148;DHT22;16960;49.404;8.248;2022-07-09T15:06:21;24.30;46.80
30148;DHT22;16960;49.404;8.248;2022-07-09T15:08:48;24.30;46.70
30148;DHT22;16960;49.404;8.248;2022-07-09T15:11:15;24.40;46.60
30148;DHT22;16960;49.404;8.248;2022-07-09T15:13:44;24.40;46.50
30148;DHT22;16960;49.404;8.248;2022-07-09T15:16:11;24.40;46.50
30148;DHT22;16960;49.404;8.248;2022-07-09T15:18:37;24.40;46.40
30148;DHT22;16960;49.404;8.248;2022-07-09T15:21:05;24.50;46.50
30148;DHT22;16960;49.404;8.248;2022-07-09T15:23:34;24.50;46.40
30148;DHT22;16960;49.404;8.248;2022-07-09T15:26:01;24.50;46.30
30148;DHT22;16960;49.404;8.248;2022-07-09T15:28:28;24.60;46.20
30148;DHT22;16960;49.404;8.248;2022-07-09T15:30:56;24.60;46.20
30148;DHT22;16960;49.404;8.248;2022-07-09T15:33:23;24.60;46.20
30148;DHT22;16960;49.404;8.248;2022-07-09T15:35:51;24.60;46.20